createdAt,value
2022-09-30T00:01:22.360Z,17.77
2022-09-30T00:04:13.453Z,17.87
2022-09-30T00:06:59.572Z,17.77
2022-09-30T00:09:48.045Z,17.77
2022-09-30T00:12:34.037Z,17.75
2022-09-30T00:15:20.593Z,17.66
2022-09-30T00:18:06.423Z,17.72
2022-09-30T00:20:53.244Z,17.65
2022-09-30T00:23:39.813Z,17.74
2022-09-30T00:26:26.009Z,17.75
2022-09-30T00:29:12.400Z,17.75
2022-09-30T00:31:58.661Z,17.72
2022-09-30T00:34:44.478Z,17.50
2022-09-30T00:37:30.508Z,17.39
2022-09-30T00:40:16.568Z,17.50
2022-09-30T00:43:02.934Z,17.49
2022-09-30T00:45:56.717Z,17.40
2022-09-30T00:48:42.693Z,17.54
2022-09-30T00:51:42.157Z,17.41
2022-09-30T00:54:30.214Z,17.46
2022-09-30T00:57:17.717Z,17.18
2022-09-30T01:00:05.572Z,17.09
2022-09-30T01:02:51.879Z,16.81
2022-09-30T01:05:37.791Z,16.86
2022-09-30T01:08:23.883Z,16.74
2022-09-30T01:11:10.538Z,16.88
2022-09-30T01:14:12.124Z,16.81
2022-09-30T01:17:22.833Z,16.72
2022-09-30T01:20:27.404Z,16.81
2022-09-30T01:23:32.266Z,16.64
2022-09-30T01:26:40.781Z,16.78
2022-09-30T01:29:45.378Z,16.83
2022-09-30T01:32:43.503Z,16.92
2022-09-30T01:35:55.113Z,16.91
2022-09-30T01:38:40.952Z,16.95
2022-09-30T01:41:32.079Z,16.92
2022-09-30T01:44:35.573Z,16.94
2022-09-30T01:47:31.398Z,16.94
2022-09-30T01:50:22.028Z,17.00
2022-09-30T01:53:26.796Z,16.89
2022-09-30T01:56:23.812Z,16.69
2022-09-30T01:59:15.890Z,16.88
2022-09-30T02:02:06.968Z,16.85
2022-09-30T02:04:57.608Z,16.63
2022-09-30T02:07:47.070Z,16.58
2022-09-30T02:10:44.642Z,16.72
2022-09-30T02:13:43.004Z,16.74
2022-09-30T02:16:42.253Z,16.85
2022-09-30T02:19:52.541Z,16.84
2022-09-30T02:22:45.674Z,16.75
2022-09-30T02:25:48.553Z,16.84
2022-09-30T02:28:39.487Z,16.80
2022-09-30T02:31:26.903Z,16.82
2022-09-30T02:34:15.980Z,16.83
2022-09-30T02:37:15.493Z,16.83
2022-09-30T02:40:36.539Z,16.83
2022-09-30T02:43:22.773Z,16.83
2022-09-30T02:46:12.057Z,16.84
2022-09-30T02:49:28.402Z,16.72
2022-09-30T02:52:35.553Z,16.75
2022-09-30T02:55:33.967Z,16.81
2022-09-30T02:58:26.220Z,16.72
2022-09-30T03:01:14.420Z,16.76
2022-09-30T03:04:04.181Z,16.67
2022-09-30T03:06:50.752Z,16.78
2022-09-30T03:09:36.988Z,16.74
2022-09-30T03:12:54.472Z,16.72
2022-09-30T03:15:46.500Z,16.66
2022-09-30T03:19:07.797Z,16.63
2022-09-30T03:22:25.150Z,16.71
2022-09-30T03:25:38.790Z,16.75
2022-09-30T03:28:33.438Z,16.67
2022-09-30T03:31:38.500Z,16.70
2022-09-30T03:34:42.778Z,16.42
2022-09-30T03:37:45.461Z,16.60
2022-09-30T03:40:38.992Z,16.59
2022-09-30T03:43:32.573Z,16.64
2022-09-30T03:46:23.793Z,16.75
2022-09-30T03:49:16.150Z,16.72
2022-09-30T03:52:06.793Z,16.74
2022-09-30T03:54:59.374Z,16.74
2022-09-30T03:57:45.824Z,16.74
2022-09-30T04:00:32.940Z,16.75
2022-09-30T04:03:19.801Z,16.70
2022-09-30T04:06:05.943Z,16.70
2022-09-30T04:08:54.004Z,16.74
2022-09-30T04:11:40.059Z,16.74
2022-09-30T04:14:26.576Z,16.76
2022-09-30T04:17:13.169Z,16.78
2022-09-30T04:19:59.091Z,16.77
2022-09-30T04:22:44.949Z,16.76
2022-09-30T04:25:30.809Z,16.83
2022-09-30T04:28:16.721Z,16.82
2022-09-30T04:31:04.179Z,16.80
2022-09-30T04:33:50.794Z,16.79
2022-09-30T04:36:36.644Z,16.75
2022-09-30T04:39:22.669Z,16.85
2022-09-30T04:42:08.337Z,16.86
2022-09-30T04:44:54.281Z,16.82
2022-09-30T04:47:45.400Z,16.88
2022-09-30T04:50:31.931Z,16.86
2022-09-30T04:53:18.761Z,16.93
2022-09-30T04:56:04.926Z,16.93
2022-09-30T04:58:52.213Z,16.93
2022-09-30T05:01:39.420Z,16.81
2022-09-30T05:04:25.603Z,16.95
2022-09-30T05:07:11.674Z,17.00
2022-09-30T05:09:57.633Z,16.94
2022-09-30T05:12:45.433Z,16.94
2022-09-30T05:15:31.457Z,16.83
2022-09-30T05:18:19.394Z,16.94
2022-09-30T05:21:05.634Z,16.99
2022-09-30T05:23:53.840Z,17.09
2022-09-30T05:26:43.023Z,17.10
2022-09-30T05:29:29.680Z,17.13
2022-09-30T05:32:15.895Z,17.10
2022-09-30T05:35:03.554Z,17.11
2022-09-30T05:37:49.501Z,17.14
2022-09-30T05:40:38.646Z,17.18
2022-09-30T05:43:24.874Z,17.21
2022-09-30T05:53:25.383Z,16.31
2022-09-30T05:56:12.032Z,16.24
2022-09-30T05:58:58.113Z,16.43
2022-09-30T06:01:44.257Z,16.58
2022-09-30T06:04:30.082Z,16.68
2022-09-30T06:07:16.084Z,16.84
2022-09-30T06:10:03.232Z,16.94
2022-09-30T06:12:49.355Z,17.08
2022-09-30T06:15:38.161Z,17.15
2022-09-30T06:18:24.158Z,17.11
2022-09-30T06:21:13.026Z,17.18
2022-09-30T06:23:58.949Z,17.26
2022-09-30T06:26:44.845Z,17.24
2022-09-30T06:29:30.666Z,17.37
2022-09-30T06:32:17.383Z,17.48
2022-09-30T06:35:04.202Z,17.48
2022-09-30T06:37:53.971Z,17.59
2022-09-30T06:40:39.943Z,17.57
2022-09-30T06:43:25.859Z,17.74
2022-09-30T06:46:17.665Z,17.80
2022-09-30T06:49:13.305Z,17.81
2022-09-30T06:52:01.037Z,17.92
2022-09-30T06:54:47.277Z,17.96
2022-09-30T06:57:33.440Z,18.07
2022-09-30T07:00:19.559Z,18.14
2022-09-30T07:03:10.191Z,18.23
2022-09-30T07:06:04.347Z,18.22
2022-09-30T07:08:51.822Z,18.32
2022-09-30T07:11:38.295Z,18.43
2022-09-30T07:14:24.359Z,18.42
2022-09-30T07:17:10.278Z,18.53
2022-09-30T07:19:56.530Z,18.59
2022-09-30T07:22:42.519Z,18.60
2022-09-30T07:25:28.691Z,18.77
2022-09-30T07:28:14.688Z,18.84
2022-09-30T07:31:30.744Z,18.97
2022-09-30T07:34:09.603Z,19.07
2022-09-30T07:36:55.670Z,19.08
2022-09-30T07:39:42.946Z,19.12
2022-09-30T07:42:31.147Z,19.22
2022-09-30T07:45:18.928Z,19.15
2022-09-30T07:48:24.957Z,19.19
2022-09-30T07:51:19.798Z,19.28
2022-09-30T07:54:13.613Z,19.37
2022-09-30T07:57:16.186Z,19.43
2022-09-30T08:00:17.004Z,19.49
2022-09-30T08:03:08.690Z,19.54
2022-09-30T08:05:54.722Z,19.64
2022-09-30T08:08:41.425Z,19.59
2022-09-30T08:11:27.793Z,19.73
2022-09-30T08:14:15.874Z,19.76
2022-09-30T08:17:02.406Z,19.75
2022-09-30T08:19:49.285Z,19.83
2022-09-30T08:22:35.444Z,19.81
2022-09-30T08:25:23.076Z,19.76
2022-09-30T08:28:09.185Z,19.68
2022-09-30T08:30:54.977Z,19.97
2022-09-30T08:33:41.461Z,20.02
2022-09-30T08:36:27.940Z,20.08
2022-09-30T08:39:14.039Z,20.08
2022-09-30T08:42:32.338Z,20.24
2022-09-30T08:45:31.023Z,20.35
2022-09-30T08:48:29.723Z,20.45
2022-09-30T08:51:37.622Z,20.41
2022-09-30T08:54:26.211Z,20.63
2022-09-30T08:57:12.886Z,20.74
2022-09-30T09:00:06.332Z,20.88
2022-09-30T09:02:54.916Z,20.91
2022-09-30T09:06:01.867Z,21.12
2022-09-30T09:08:49.436Z,21.09
2022-09-30T09:11:54.391Z,21.19
2022-09-30T09:15:02.069Z,21.42
2022-09-30T09:18:24.723Z,21.32
2022-09-30T09:21:22.601Z,21.48
2022-09-30T09:24:17.588Z,21.51
2022-09-30T09:27:14.229Z,21.73
2022-09-30T09:30:07.581Z,21.83
2022-09-30T09:32:57.193Z,22.02
2022-09-30T09:36:22.306Z,22.09
2022-09-30T09:39:38.943Z,22.02
2022-09-30T09:42:50.666Z,22.31
2022-09-30T09:45:42.663Z,22.55
2022-09-30T09:48:30.778Z,22.61
2022-09-30T09:51:25.176Z,22.65
2022-09-30T09:54:12.505Z,22.88
2022-09-30T09:57:12.144Z,22.78
2022-09-30T10:00:22.575Z,23.04
2022-09-30T10:03:24.223Z,23.06
2022-09-30T10:06:12.904Z,23.19
2022-09-30T10:08:58.740Z,23.31
2022-09-30T10:11:44.794Z,23.32
2022-09-30T10:14:31.289Z,23.25
2022-09-30T10:17:31.240Z,23.40
2022-09-30T10:20:23.358Z,23.36
2022-09-30T10:23:36.194Z,23.54
2022-09-30T10:26:24.852Z,23.61
2022-09-30T10:29:29.747Z,23.38
2022-09-30T10:32:15.477Z,23.68
2022-09-30T10:35:06.490Z,23.75
2022-09-30T10:37:58.276Z,23.81
2022-09-30T10:40:49.975Z,24.01
2022-09-30T10:43:43.635Z,24.09
2022-09-30T10:46:33.322Z,24.01
2022-09-30T10:49:30.082Z,24.17
2022-09-30T10:52:19.617Z,24.05
2022-09-30T10:55:18.696Z,24.21
2022-09-30T10:58:29.813Z,23.95
2022-09-30T11:01:32.725Z,24.10
2022-09-30T11:04:34.448Z,24.07
2022-09-30T11:07:27.807Z,24.19
2022-09-30T11:10:40.231Z,24.18
2022-09-30T11:13:38.994Z,24.10
2022-09-30T11:16:33.289Z,24.31
2022-09-30T11:19:28.574Z,24.28
2022-09-30T11:22:37.918Z,24.43
2022-09-30T11:25:41.060Z,24.35
2022-09-30T11:28:36.669Z,24.35
2022-09-30T11:31:50.079Z,24.53
2022-09-30T11:34:36.106Z,24.63
2022-09-30T11:37:43.691Z,24.58
2022-09-30T11:40:35.754Z,24.60
2022-09-30T11:43:28.208Z,24.31
2022-09-30T11:46:29.344Z,24.51
2022-09-30T11:49:45.081Z,24.55
2022-09-30T11:52:40.021Z,24.78
2022-09-30T11:55:47.783Z,24.65
2022-09-30T11:58:42.114Z,24.53
2022-09-30T12:01:33.467Z,24.63
2022-09-30T12:04:29.610Z,24.82
2022-09-30T12:07:27.083Z,24.83
2022-09-30T12:10:23.696Z,24.93
2022-09-30T12:13:18.617Z,24.85
2022-09-30T12:16:08.274Z,25.00
2022-09-30T12:19:03.824Z,24.59
2022-09-30T12:21:54.762Z,24.86
2022-09-30T12:24:42.867Z,25.03
2022-09-30T12:27:36.090Z,24.96
2022-09-30T12:30:23.086Z,25.02
2022-09-30T12:33:31.059Z,24.87
2022-09-30T12:36:22.974Z,25.00
2022-09-30T12:39:33.783Z,25.12
2022-09-30T12:42:44.329Z,24.61
2022-09-30T12:45:39.314Z,25.08
2022-09-30T12:48:34.373Z,25.24
2022-09-30T12:51:26.064Z,25.28
2022-09-30T12:54:18.003Z,25.56
2022-09-30T12:57:09.200Z,25.60
2022-09-30T12:59:57.326Z,25.81
2022-09-30T13:02:49.898Z,25.66
2022-09-30T13:05:43.547Z,25.56
2022-09-30T13:08:43.340Z,25.83
2022-09-30T13:11:32.426Z,26.01
2022-09-30T13:14:30.985Z,25.72
2022-09-30T13:17:17.286Z,25.85
2022-09-30T13:20:42.260Z,25.78
2022-09-30T13:23:54.299Z,25.74
2022-09-30T13:26:42.156Z,25.85
2022-09-30T13:29:34.980Z,25.98
2022-09-30T13:32:33.451Z,25.87
2022-09-30T13:35:34.230Z,26.23
2022-09-30T13:38:24.499Z,26.55
2022-09-30T13:41:18.970Z,26.74
2022-09-30T13:44:25.905Z,27.07
2022-09-30T13:47:53.352Z,27.40
2022-09-30T13:50:49.794Z,27.75
2022-09-30T13:53:56.632Z,28.20
2022-09-30T13:56:43.325Z,28.61
2022-09-30T13:59:38.735Z,28.96
2022-09-30T14:02:31.576Z,29.57
2022-09-30T14:05:27.292Z,29.85
2022-09-30T14:08:36.815Z,30.34
2022-09-30T14:11:35.253Z,30.79
2022-09-30T14:14:49.401Z,30.96
2022-09-30T14:17:38.549Z,31.17
2022-09-30T14:21:12.581Z,31.22
2022-09-30T14:24:11.237Z,31.18
2022-09-30T14:27:09.291Z,31.27
2022-09-30T14:30:26.225Z,31.34
2022-09-30T14:33:19.034Z,31.38
2022-09-30T14:36:11.602Z,31.62
2022-09-30T14:38:59.786Z,32.03
2022-09-30T14:42:03.992Z,32.24
2022-09-30T14:44:50.334Z,32.49
2022-09-30T14:47:45.129Z,32.49
2022-09-30T14:50:37.062Z,32.52
2022-09-30T14:53:24.143Z,32.45
2022-09-30T14:56:31.717Z,32.34
2022-09-30T14:59:34.766Z,32.14
2022-09-30T15:02:20.978Z,32.08
2022-09-30T15:05:08.544Z,32.00
2022-09-30T15:07:55.340Z,31.88
2022-09-30T15:10:53.022Z,31.80
2022-09-30T15:13:41.420Z,31.67
2022-09-30T15:16:35.578Z,31.47
2022-09-30T15:19:25.271Z,31.27
2022-09-30T15:22:13.718Z,31.00
2022-09-30T15:25:00.742Z,30.79
2022-09-30T15:27:48.313Z,30.49
2022-09-30T15:30:34.615Z,30.27
2022-09-30T15:33:24.182Z,30.06
2022-09-30T15:36:17.320Z,29.84
2022-09-30T15:39:03.694Z,29.63
2022-09-30T15:41:50.066Z,29.34
2022-09-30T15:44:38.179Z,29.11
2022-09-30T15:47:26.064Z,28.78
2022-09-30T15:50:48.981Z,28.63
2022-09-30T15:53:37.764Z,28.28
2022-09-30T15:56:36.915Z,28.17
2022-09-30T15:59:23.116Z,27.87
2022-09-30T16:02:10.438Z,27.69
2022-09-30T16:04:58.162Z,27.25
2022-09-30T16:07:44.272Z,27.25
2022-09-30T16:10:30.309Z,27.03
2022-09-30T16:13:16.589Z,26.88
2022-09-30T16:16:02.683Z,26.72
2022-09-30T16:18:49.906Z,26.60
2022-09-30T16:21:44.876Z,26.26
2022-09-30T16:24:32.241Z,26.18
2022-09-30T16:27:26.069Z,26.11
2022-09-30T16:30:17.234Z,25.86
2022-09-30T16:33:06.168Z,25.85
2022-09-30T16:35:51.935Z,25.64
2022-09-30T16:38:38.227Z,25.50
2022-09-30T16:41:25.459Z,25.32
2022-09-30T16:44:11.581Z,25.24
2022-09-30T16:46:57.441Z,25.14
2022-09-30T16:49:45.411Z,25.01
2022-09-30T16:52:31.710Z,24.86
2022-09-30T16:55:17.847Z,24.75
2022-09-30T16:58:05.485Z,24.65
2022-09-30T17:00:52.418Z,24.42
2022-09-30T17:03:38.177Z,24.29
2022-09-30T17:06:28.964Z,24.13
2022-09-30T17:09:14.988Z,24.14
2022-09-30T17:12:01.248Z,24.02
2022-09-30T17:14:47.448Z,23.94
2022-09-30T17:17:33.306Z,23.84
2022-09-30T17:20:20.670Z,23.79
2022-09-30T17:23:07.661Z,23.71
2022-09-30T17:25:54.744Z,23.60
2022-09-30T17:28:40.770Z,23.46
2022-09-30T17:31:26.593Z,23.43
2022-09-30T17:34:13.130Z,23.34
2022-09-30T17:37:00.148Z,23.31
2022-09-30T17:39:46.134Z,23.25
2022-09-30T17:42:51.452Z,23.19
2022-09-30T17:45:45.215Z,23.08
2022-09-30T17:48:32.083Z,22.96
2022-09-30T17:51:18.213Z,22.89
2022-09-30T17:54:06.015Z,22.85
2022-09-30T17:56:52.287Z,22.71
2022-09-30T17:59:38.113Z,22.64
2022-09-30T18:02:25.378Z,22.47
2022-09-30T18:05:12.021Z,22.56
2022-09-30T18:07:58.134Z,22.54
2022-09-30T18:10:44.476Z,22.48
2022-09-30T18:13:30.400Z,22.38
2022-09-30T18:16:16.322Z,22.35
2022-09-30T18:19:04.872Z,22.30
2022-09-30T18:21:50.914Z,22.22
2022-09-30T18:24:55.561Z,22.21
2022-09-30T18:27:41.742Z,22.13
2022-09-30T18:30:27.932Z,22.10
2022-09-30T18:33:17.380Z,22.06
2022-09-30T18:36:06.905Z,22.02
2022-09-30T18:38:53.859Z,21.94
2022-09-30T18:41:45.321Z,21.80
2022-09-30T18:44:32.621Z,21.85
2022-09-30T18:47:18.695Z,21.78
2022-09-30T18:50:06.528Z,21.74
2022-09-30T18:52:53.577Z,21.68
2022-09-30T18:55:39.610Z,21.65
2022-09-30T18:58:25.750Z,21.63
2022-09-30T19:01:12.080Z,21.57
2022-09-30T19:03:58.252Z,21.50
2022-09-30T19:06:45.251Z,21.42
2022-09-30T19:09:31.333Z,21.37
2022-09-30T19:12:17.754Z,21.38
2022-09-30T19:15:10.144Z,21.33
2022-09-30T19:17:56.868Z,21.28
2022-09-30T19:20:42.805Z,21.25
2022-09-30T19:23:33.119Z,21.23
2022-09-30T19:26:19.470Z,21.18
2022-09-30T19:29:07.854Z,21.08
2022-09-30T19:31:54.594Z,21.10
2022-09-30T19:34:40.424Z,21.07
2022-09-30T19:37:27.868Z,21.04
2022-09-30T19:40:21.471Z,21.00
2022-09-30T19:43:08.995Z,20.99
2022-09-30T19:45:56.698Z,20.92
2022-09-30T19:48:42.737Z,20.91
2022-09-30T19:51:30.716Z,20.90
2022-09-30T19:54:17.119Z,20.83
2022-09-30T19:57:03.006Z,20.71
2022-09-30T19:59:48.914Z,20.71
2022-09-30T20:02:35.555Z,20.70
2022-09-30T20:05:21.595Z,20.62
2022-09-30T20:08:07.334Z,20.56
2022-09-30T20:10:53.060Z,20.51
2022-09-30T20:13:39.814Z,20.44
2022-09-30T20:16:25.888Z,20.35
2022-09-30T20:19:12.138Z,20.30
2022-09-30T20:21:58.305Z,20.25
2022-09-30T20:24:44.330Z,20.10
2022-09-30T20:27:31.071Z,20.05
2022-09-30T20:30:19.175Z,20.13
2022-09-30T20:33:05.549Z,20.06
2022-09-30T20:35:51.494Z,20.07
2022-09-30T20:38:38.971Z,19.92
2022-09-30T20:41:26.212Z,19.95
2022-09-30T20:44:13.691Z,19.92
2022-09-30T20:46:59.640Z,19.81
2022-09-30T20:49:46.646Z,19.83
2022-09-30T20:52:32.947Z,19.67
2022-09-30T20:55:19.230Z,19.65
2022-09-30T20:58:06.742Z,19.69
2022-09-30T21:00:52.788Z,19.63
2022-09-30T21:03:39.115Z,19.60
2022-09-30T21:06:29.350Z,19.58
2022-09-30T21:09:15.653Z,19.46
2022-09-30T21:12:02.102Z,19.33
2022-09-30T21:14:48.391Z,19.33
2022-09-30T21:17:34.143Z,19.38
2022-09-30T21:20:23.262Z,19.33
2022-09-30T21:23:09.340Z,19.32
2022-09-30T21:26:03.795Z,19.31
2022-09-30T21:28:50.842Z,19.27
2022-09-30T21:31:38.008Z,19.19
2022-09-30T21:34:24.636Z,19.15
2022-09-30T21:37:10.882Z,19.11
2022-09-30T21:39:56.899Z,19.16
2022-09-30T21:42:42.726Z,19.05
2022-09-30T21:45:28.648Z,18.97
2022-09-30T21:48:14.462Z,19.11
2022-09-30T21:51:00.723Z,19.06
2022-09-30T21:53:46.901Z,19.02
2022-09-30T21:56:33.171Z,18.96
2022-09-30T21:59:19.507Z,18.91
2022-09-30T22:02:06.563Z,18.92
2022-09-30T22:04:52.806Z,18.86
2022-09-30T22:07:39.109Z,18.84
2022-09-30T22:10:25.615Z,18.81
2022-09-30T22:13:11.963Z,18.76
2022-09-30T22:16:03.882Z,18.81
2022-09-30T22:18:54.311Z,18.80
2022-09-30T22:21:40.666Z,18.63
2022-09-30T22:24:26.938Z,18.77
2022-09-30T22:27:13.058Z,18.77
2022-09-30T22:29:59.860Z,18.75
2022-09-30T22:32:45.903Z,18.63
2022-09-30T22:36:00.974Z,18.73
2022-09-30T22:38:47.109Z,18.56
2022-09-30T22:41:33.972Z,18.52
2022-09-30T22:44:25.699Z,18.59
2022-09-30T22:47:12.052Z,18.48
2022-09-30T22:49:57.805Z,18.54
2022-09-30T22:52:43.745Z,18.52
2022-09-30T22:55:30.306Z,18.40
2022-09-30T22:58:16.262Z,18.46
2022-09-30T23:01:02.077Z,18.48
2022-09-30T23:03:52.879Z,18.38
2022-09-30T23:06:38.746Z,18.34
2022-09-30T23:09:24.940Z,18.42
2022-09-30T23:12:11.731Z,18.34
2022-09-30T23:14:57.681Z,18.34
2022-09-30T23:17:43.651Z,18.36
2022-09-30T23:20:29.448Z,18.34
2022-09-30T23:23:15.207Z,18.25
2022-09-30T23:26:02.891Z,18.30
2022-09-30T23:28:49.381Z,18.27
2022-09-30T23:31:35.947Z,18.26
2022-09-30T23:34:21.846Z,18.20
2022-09-30T23:37:07.677Z,18.22
2022-09-30T23:39:53.674Z,18.13
2022-09-30T23:42:39.421Z,18.14
2022-09-30T23:45:25.152Z,18.13
2022-09-30T23:48:10.897Z,18.08
2022-09-30T23:50:56.698Z,18.07
2022-09-30T23:53:42.861Z,17.99
2022-09-30T23:56:28.995Z,17.97
2022-09-30T23:59:14.940Z,17.96
